sensor_id;sensor_type;location;lat;lon;timestamp;temperature;humidity
3816;DHT22;1923;48.154;11.536;2023-09-07T00:00:58;18.80;99.90
3816;DHT22;1923;48.154;11.536;2023-09-07T00:03:29;18.80;99.90
3816;DHT22;1923;48.154;11.536;2023-09-07T00:05:57;18.70;99.90
3816;DHT22;1923;48.154;11.536;2023-09-07T00:08:26;18.70;99.90
3816;DHT22;1923;48.154;11.536;2023-09-07T00:10:54;18.60;99.90
3816;DHT22;1923;48.154;11.536;2023-09-07T00:13:22;18.60;99.90
3816;DHT22;1923;48.154;11.536;2023-09-07T00:15:50;18.70;99.90
3816;DHT22;1923;48.154;11.536;2023-09-07T00:18:18;18.60;99.90
3816;DHT22;1923;48.154;11.536;2023-09-07T00:20:48;18.50;99.90
3816;DHT22;1923;48.154;11.536;2023-09-07T00:23:16;18.50;99.90
3816;DHT22;1923;48.154;11.536;2023-09-07T00:25:46;18.40;99.90
3816;DHT22;1923;48.154;11.536;2023-09-07T00:28:14;18.30;99.90
3816;DHT22;1923;48.154;11.536;2023-09-07T00:30:43;18.30;99.90
3816;DHT22;1923;48.154;11.536;2023-09-07T00:33:11;18.40;99.90
3816;DHT22;1923;48.154;11.536;2023-09-07T00:35:39;18.30;99.90
3816;DHT22;1923;48.154;11.536;2023-09-07T00:38:08;18.30;99.90
3816;DHT22;1923;48.154;11.536;2023-09-07T00:40:41;18.10;99.90
3816;DHT22;1923;48.154;11.536;2023-09-07T00:43:10;18.20;99.90
3816;DHT22;1923;48.154;11.536;2023-09-07T00:45:38;18.20;99.90
3816;DHT22;1923;48.154;11.536;2023-09-07T00:48:07;18.20;99.90
3816;DHT22;1923;48.154;11.536;2023-09-07T00:50:35;18.10;99.90
3816;DHT22;1923;48.154;11.536;2023-09-07T00:53:03;18.20;99.90
3816;DHT22;1923;48.154;11.536;2023-09-07T00:55:34;18.20;99.90
3816;DHT22;1923;48.154;11.536;2023-09-07T00:58:04;18.20;99.90
3816;DHT22;1923;48.154;11.536;2023-09-07T01:00:33;18.20;99.90
3816;DHT22;1923;48.154;11.536;2023-09-07T01:03:02;18.20;99.90
3816;DHT22;1923;48.154;11.536;2023-09-07T01:05:34;18.20;99.90
3816;DHT22;1923;48.154;11.536;2023-09-07T01:08:11;18.30;99.90
3816;DHT22;1923;48.154;11.536;2023-09-07T01:10:43;18.20;99.90
3816;DHT22;1923;48.154;11.536;2023-09-07T01:13:11;18.10;99.90
3816;DHT22;1923;48.154;11.536;2023-09-07T01:15:39;18.10;99.90
3816;DHT22;1923;48.154;11.536;2023-09-07T01:18:08;17.90;99.90
3816;DHT22;1923;48.154;11.536;2023-09-07T01:20:57;18.00;99.90
3816;DHT22;1923;48.154;11.536;2023-09-07T01:23:27;18.00;99.90
3816;DHT22;1923;48.154;11.536;2023-09-07T01:25:56;17.90;99.90
3816;DHT22;1923;48.154;11.536;2023-09-07T01:28:24;17.90;99.90
3816;DHT22;1923;48.154;11.536;2023-09-07T01:30:52;17.90;99.90
3816;DHT22;1923;48.154;11.536;2023-09-07T01:33:20;17.80;99.90
3816;DHT22;1923;48.154;11.536;2023-09-07T01:35:48;17.60;99.90
3816;DHT22;1923;48.154;11.536;2023-09-07T01:38:16;17.60;99.90
3816;DHT22;1923;48.154;11.536;2023-09-07T01:40:46;17.70;99.90
3816;DHT22;1923;48.154;11.536;2023-09-07T01:43:14;17.70;99.90
3816;DHT22;1923;48.154;11.536;2023-09-07T01:45:42;17.60;99.90
3816;DHT22;1923;48.154;11.536;2023-09-07T01:48:13;17.60;99.90
3816;DHT22;1923;48.154;11.536;2023-09-07T01:50:42;17.50;99.90
3816;DHT22;1923;48.154;11.536;2023-09-07T01:53:10;17.60;99.90
3816;DHT22;1923;48.154;11.536;2023-09-07T01:55:38;17.60;99.90
3816;DHT22;1923;48.154;11.536;2023-09-07T01:58:08;17.60;99.90
3816;DHT22;1923;48.154;11.536;2023-09-07T02:00:39;17.60;99.90
3816;DHT22;1923;48.154;11.536;2023-09-07T02:03:08;17.50;99.90
3816;DHT22;1923;48.154;11.536;2023-09-07T02:05:37;17.50;99.90
3816;DHT22;1923;48.154;11.536;2023-09-07T02:08:05;17.40;99.90
3816;DHT22;1923;48.154;11.536;2023-09-07T02:10:34;17.40;99.90
3816;DHT22;1923;48.154;11.536;2023-09-07T02:13:02;17.30;99.90
3816;DHT22;1923;48.154;11.536;2023-09-07T02:15:32;17.40;99.90
3816;DHT22;1923;48.154;11.536;2023-09-07T02:18:00;17.40;99.90
3816;DHT22;1923;48.154;11.536;2023-09-07T02:20:30;17.40;99.90
3816;DHT22;1923;48.154;11.536;2023-09-07T02:22:58;17.40;99.90
3816;DHT22;1923;48.154;11.536;2023-09-07T02:25:27;17.30;99.90
3816;DHT22;1923;48.154;11.536;2023-09-07T02:27:57;17.20;99.90
3816;DHT22;1923;48.154;11.536;2023-09-07T02:30:25;17.20;99.90
3816;DHT22;1923;48.154;11.536;2023-09-07T02:32:54;17.30;99.90
3816;DHT22;1923;48.154;11.536;2023-09-07T02:35:23;17.30;99.90
3816;DHT22;1923;48.154;11.536;2023-09-07T02:37:51;17.30;99.90
3816;DHT22;1923;48.154;11.536;2023-09-07T02:40:19;17.30;99.90
3816;DHT22;1923;48.154;11.536;2023-09-07T02:42:47;17.30;99.90
3816;DHT22;1923;48.154;11.536;2023-09-07T02:45:15;17.20;99.90
3816;DHT22;1923;48.154;11.536;2023-09-07T02:47:44;17.30;99.90
3816;DHT22;1923;48.154;11.536;2023-09-07T02:50:14;17.30;99.90
3816;DHT22;1923;48.154;11.536;2023-09-07T02:52:44;17.30;99.90
3816;DHT22;1923;48.154;11.536;2023-09-07T02:55:12;17.30;99.90
3816;DHT22;1923;48.154;11.536;2023-09-07T02:57:40;17.30;99.90
3816;DHT22;1923;48.154;11.536;2023-09-07T03:00:09;17.40;99.90
3816;DHT22;1923;48.154;11.536;2023-09-07T03:02:38;17.40;99.90
3816;DHT22;1923;48.154;11.536;2023-09-07T03:05:07;17.50;99.90
3816;DHT22;1923;48.154;11.536;2023-09-07T03:07:36;17.30;99.90
3816;DHT22;1923;48.154;11.536;2023-09-07T03:10:06;17.20;99.90
3816;DHT22;1923;48.154;11.536;2023-09-07T03:12:34;17.40;99.90
3816;DHT22;1923;48.154;11.536;2023-09-07T03:15:03;17.40;99.90
3816;DHT22;1923;48.154;11.536;2023-09-07T03:17:31;17.40;99.90
3816;DHT22;1923;48.154;11.536;2023-09-07T03:19:59;17.30;99.90
3816;DHT22;1923;48.154;11.536;2023-09-07T03:22:27;17.30;99.90
3816;DHT22;1923;48.154;11.536;2023-09-07T03:24:57;17.30;99.90
3816;DHT22;1923;48.154;11.536;2023-09-07T03:27:25;17.30;99.90
3816;DHT22;1923;48.154;11.536;2023-09-07T03:29:53;17.30;99.90
3816;DHT22;1923;48.154;11.536;2023-09-07T03:32:21;17.30;99.90
3816;DHT22;1923;48.154;11.536;2023-09-07T03:34:49;17.20;99.90
3816;DHT22;1923;48.154;11.536;2023-09-07T03:37:18;17.40;99.90
3816;DHT22;1923;48.154;11.536;2023-09-07T03:39:45;17.30;99.90
3816;DHT22;1923;48.154;11.536;2023-09-07T03:42:15;17.20;99.90
3816;DHT22;1923;48.154;11.536;2023-09-07T03:44:43;17.20;99.90
3816;DHT22;1923;48.154;11.536;2023-09-07T03:47:13;17.20;99.90
3816;DHT22;1923;48.154;11.536;2023-09-07T03:49:42;17.10;99.90
3816;DHT22;1923;48.154;11.536;2023-09-07T03:52:11;17.10;99.90
3816;DHT22;1923;48.154;11.536;2023-09-07T03:54:39;17.10;99.90
3816;DHT22;1923;48.154;11.536;2023-09-07T03:57:07;17.10;99.90
3816;DHT22;1923;48.154;11.536;2023-09-07T03:59:36;17.10;99.90
3816;DHT22;1923;48.154;11.536;2023-09-07T04:02:04;17.10;99.90
3816;DHT22;1923;48.154;11.536;2023-09-07T04:04:33;17.00;99.90
3816;DHT22;1923;48.154;11.536;2023-09-07T04:07:01;17.10;99.90
3816;DHT22;1923;48.154;11.536;2023-09-07T04:09:30;17.00;99.90
3816;DHT22;1923;48.154;11.536;2023-09-07T04:11:58;17.00;99.90
3816;DHT22;1923;48.154;11.536;2023-09-07T04:14:27;16.90;99.90
3816;DHT22;1923;48.154;11.536;2023-09-07T04:16:58;16.80;99.90
3816;DHT22;1923;48.154;11.536;2023-09-07T04:19:26;16.80;99.90
3816;DHT22;1923;48.154;11.536;2023-09-07T04:21:54;16.80;99.90
3816;DHT22;1923;48.154;11.536;2023-09-07T04:24:22;16.80;99.90
3816;DHT22;1923;48.154;11.536;2023-09-07T04:26:50;16.70;99.90
3816;DHT22;1923;48.154;11.536;2023-09-07T04:29:18;16.70;99.90
3816;DHT22;1923;48.154;11.536;2023-09-07T04:31:46;16.60;99.90
3816;DHT22;1923;48.154;11.536;2023-09-07T04:34:16;16.60;99.90
3816;DHT22;1923;48.154;11.536;2023-09-07T04:36:44;16.60;99.90
3816;DHT22;1923;48.154;11.536;2023-09-07T04:39:12;16.50;99.90
3816;DHT22;1923;48.154;11.536;2023-09-07T04:41:41;16.50;99.90
3816;DHT22;1923;48.154;11.536;2023-09-07T04:44:09;16.50;99.90
3816;DHT22;1923;48.154;11.536;2023-09-07T04:46:36;16.50;99.90
3816;DHT22;1923;48.154;11.536;2023-09-07T04:49:04;16.60;99.90
3816;DHT22;1923;48.154;11.536;2023-09-07T04:51:33;16.50;99.90
3816;DHT22;1923;48.154;11.536;2023-09-07T04:54:01;16.50;99.90
3816;DHT22;1923;48.154;11.536;2023-09-07T04:56:30;16.60;99.90
3816;DHT22;1923;48.154;11.536;2023-09-07T04:58:58;16.60;99.90
3816;DHT22;1923;48.154;11.536;2023-09-07T05:01:27;16.60;99.90
3816;DHT22;1923;48.154;11.536;2023-09-07T05:03:56;16.70;99.90
3816;DHT22;1923;48.154;11.536;2023-09-07T05:06:24;16.50;99.90
3816;DHT22;1923;48.154;11.536;2023-09-07T05:08:54;16.50;99.90
3816;DHT22;1923;48.154;11.536;2023-09-07T05:11:22;16.40;99.90
3816;DHT22;1923;48.154;11.536;2023-09-07T05:13:50;16.30;99.90
3816;DHT22;1923;48.154;11.536;2023-09-07T05:16:18;16.30;99.90
3816;DHT22;1923;48.154;11.536;2023-09-07T05:18:46;16.40;99.90
3816;DHT22;1923;48.154;11.536;2023-09-07T05:21:15;16.40;99.90
3816;DHT22;1923;48.154;11.536;2023-09-07T05:23:43;16.40;99.90
3816;DHT22;1923;48.154;11.536;2023-09-07T05:26:13;16.50;99.90
3816;DHT22;1923;48.154;11.536;2023-09-07T05:28:41;16.60;99.90
3816;DHT22;1923;48.154;11.536;2023-09-07T05:31:09;16.50;99.90
3816;DHT22;1923;48.154;11.536;2023-09-07T05:33:37;16.60;99.90
3816;DHT22;1923;48.154;11.536;2023-09-07T05:36:06;16.60;99.90
3816;DHT22;1923;48.154;11.536;2023-09-07T05:38:34;16.80;99.90
3816;DHT22;1923;48.154;11.536;2023-09-07T05:41:03;16.90;99.90
3816;DHT22;1923;48.154;11.536;2023-09-07T05:43:32;16.90;99.90
3816;DHT22;1923;48.154;11.536;2023-09-07T05:46:00;17.10;99.90
3816;DHT22;1923;48.154;11.536;2023-09-07T05:48:28;17.20;99.90
3816;DHT22;1923;48.154;11.536;2023-09-07T05:50:57;17.30;99.90
3816;DHT22;1923;48.154;11.536;2023-09-07T05:53:25;17.20;99.90
3816;DHT22;1923;48.154;11.536;2023-09-07T05:55:53;17.20;99.90
3816;DHT22;1923;48.154;11.536;2023-09-07T05:58:21;17.40;99.90
3816;DHT22;1923;48.154;11.536;2023-09-07T06:00:50;17.40;99.90
3816;DHT22;1923;48.154;11.536;2023-09-07T06:03:19;17.40;99.90
3816;DHT22;1923;48.154;11.536;2023-09-07T06:05:47;17.50;99.90
3816;DHT22;1923;48.154;11.536;2023-09-07T06:08:15;17.60;99.90
3816;DHT22;1923;48.154;11.536;2023-09-07T06:10:44;17.70;99.90
3816;DHT22;1923;48.154;11.536;2023-09-07T06:13:12;18.00;99.90
3816;DHT22;1923;48.154;11.536;2023-09-07T06:15:40;18.10;99.90
3816;DHT22;1923;48.154;11.536;2023-09-07T06:18:09;18.20;99.90
3816;DHT22;1923;48.154;11.536;2023-09-07T06:20:37;18.50;99.90
3816;DHT22;1923;48.154;11.536;2023-09-07T06:23:05;18.60;99.90
3816;DHT22;1923;48.154;11.536;2023-09-07T06:25:33;18.60;99.90
3816;DHT22;1923;48.154;11.536;2023-09-07T06:28:02;18.70;99.90
3816;DHT22;1923;48.154;11.536;2023-09-07T06:30:29;19.00;99.90
3816;DHT22;1923;48.154;11.536;2023-09-07T06:32:58;19.00;99.90
3816;DHT22;1923;48.154;11.536;2023-09-07T06:35:27;19.10;99.90
3816;DHT22;1923;48.154;11.536;2023-09-07T06:37:55;19.20;99.90
3816;DHT22;1923;48.154;11.536;2023-09-07T06:40:23;19.40;99.90
3816;DHT22;1923;48.154;11.536;2023-09-07T06:42:53;19.50;99.90
3816;DHT22;1923;48.154;11.536;2023-09-07T06:45:23;19.40;99.90
3816;DHT22;1923;48.154;11.536;2023-09-07T06:47:51;19.20;99.90
3816;DHT22;1923;48.154;11.536;2023-09-07T06:50:20;19.30;99.90
3816;DHT22;1923;48.154;11.536;2023-09-07T06:52:49;19.20;99.90
3816;DHT22;1923;48.154;11.536;2023-09-07T06:55:18;19.20;99.90
3816;DHT22;1923;48.154;11.536;2023-09-07T06:57:47;19.30;99.90
3816;DHT22;1923;48.154;11.536;2023-09-07T07:00:16;19.40;99.90
3816;DHT22;1923;48.154;11.536;2023-09-07T07:02:44;19.40;99.90
3816;DHT22;1923;48.154;11.536;2023-09-07T07:05:13;19.40;99.90
3816;DHT22;1923;48.154;11.536;2023-09-07T07:07:41;19.20;99.90
3816;DHT22;1923;48.154;11.536;2023-09-07T07:10:10;19.30;99.90
3816;DHT22;1923;48.154;11.536;2023-09-07T07:12:39;19.10;99.90
3816;DHT22;1923;48.154;11.536;2023-09-07T07:15:08;19.30;99.90
3816;DHT22;1923;48.154;11.536;2023-09-07T07:17:38;19.40;99.90
3816;DHT22;1923;48.154;11.536;2023-09-07T07:20:07;19.40;99.90
3816;DHT22;1923;48.154;11.536;2023-09-07T07:22:36;19.50;99.90
3816;DHT22;1923;48.154;11.536;2023-09-07T07:25:04;19.40;99.90
3816;DHT22;1923;48.154;11.536;2023-09-07T07:27:34;19.40;99.90
3816;DHT22;1923;48.154;11.536;2023-09-07T07:30:02;19.50;99.90
3816;DHT22;1923;48.154;11.536;2023-09-07T07:32:30;19.60;99.90
3816;DHT22;1923;48.154;11.536;2023-09-07T07:34:58;19.70;99.90
3816;DHT22;1923;48.154;11.536;2023-09-07T07:37:27;19.80;99.90
3816;DHT22;1923;48.154;11.536;2023-09-07T07:39:55;19.90;99.90
3816;DHT22;1923;48.154;11.536;2023-09-07T07:42:23;20.10;99.90
3816;DHT22;1923;48.154;11.536;2023-09-07T07:44:52;20.30;99.90
3816;DHT22;1923;48.154;11.536;2023-09-07T07:47:20;20.50;99.90
3816;DHT22;1923;48.154;11.536;2023-09-07T07:49:48;20.80;99.90
3816;DHT22;1923;48.154;11.536;2023-09-07T07:52:16;20.90;99.90
3816;DHT22;1923;48.154;11.536;2023-09-07T07:54:44;21.20;99.90
3816;DHT22;1923;48.154;11.536;2023-09-07T07:57:12;21.40;99.90
3816;DHT22;1923;48.154;11.536;2023-09-07T07:59:41;21.50;99.90
3816;DHT22;1923;48.154;11.536;2023-09-07T08:02:10;21.70;99.90
3816;DHT22;1923;48.154;11.536;2023-09-07T08:04:38;21.90;99.90
3816;DHT22;1923;48.154;11.536;2023-09-07T08:07:07;22.00;99.90
3816;DHT22;1923;48.154;11.536;2023-09-07T08:09:35;22.30;99.90
3816;DHT22;1923;48.154;11.536;2023-09-07T08:12:04;22.30;99.90
3816;DHT22;1923;48.154;11.536;2023-09-07T08:14:32;22.30;99.90
3816;DHT22;1923;48.154;11.536;2023-09-07T08:17:00;22.40;99.90
3816;DHT22;1923;48.154;11.536;2023-09-07T08:19:31;22.60;99.90
3816;DHT22;1923;48.154;11.536;2023-09-07T08:21:59;22.60;99.90
3816;DHT22;1923;48.154;11.536;2023-09-07T08:24:30;22.50;99.90
3816;DHT22;1923;48.154;11.536;2023-09-07T08:26:58;22.60;99.90
3816;DHT22;1923;48.154;11.536;2023-09-07T08:29:27;22.80;99.90
3816;DHT22;1923;48.154;11.536;2023-09-07T08:31:59;22.60;99.90
3816;DHT22;1923;48.154;11.536;2023-09-07T08:34:32;22.50;99.90
3816;DHT22;1923;48.154;11.536;2023-09-07T08:37:03;22.50;99.90
3816;DHT22;1923;48.154;11.536;2023-09-07T08:39:33;22.30;99.90
3816;DHT22;1923;48.154;11.536;2023-09-07T08:42:01;22.50;99.90
3816;DHT22;1923;48.154;11.536;2023-09-07T08:44:32;22.80;99.90
3816;DHT22;1923;48.154;11.536;2023-09-07T08:47:02;22.80;99.90
3816;DHT22;1923;48.154;11.536;2023-09-07T08:49:32;22.80;99.90
3816;DHT22;1923;48.154;11.536;2023-09-07T08:52:02;22.50;99.90
3816;DHT22;1923;48.154;11.536;2023-09-07T08:54:31;22.70;99.90
3816;DHT22;1923;48.154;11.536;2023-09-07T08:57:02;22.90;99.90
3816;DHT22;1923;48.154;11.536;2023-09-07T08:59:31;22.90;99.90
3816;DHT22;1923;48.154;11.536;2023-09-07T09:01:59;23.00;99.90
3816;DHT22;1923;48.154;11.536;2023-09-07T09:04:28;23.00;99.90
3816;DHT22;1923;48.154;11.536;2023-09-07T09:06:58;22.90;99.90
3816;DHT22;1923;48.154;11.536;2023-09-07T09:09:30;22.90;99.90
3816;DHT22;1923;48.154;11.536;2023-09-07T09:12:07;22.80;99.90
3816;DHT22;1923;48.154;11.536;2023-09-07T09:14:35;22.60;99.90
3816;DHT22;1923;48.154;11.536;2023-09-07T09:17:03;22.50;99.90
3816;DHT22;1923;48.154;11.536;2023-09-07T09:19:31;22.60;99.90
3816;DHT22;1923;48.154;11.536;2023-09-07T09:22:01;22.60;99.90
3816;DHT22;1923;48.154;11.536;2023-09-07T09:24:32;22.90;99.90
3816;DHT22;1923;48.154;11.536;2023-09-07T09:27:01;23.10;99.90
3816;DHT22;1923;48.154;11.536;2023-09-07T09:29:31;23.40;99.90
3816;DHT22;1923;48.154;11.536;2023-09-07T09:32:00;23.20;99.90
3816;DHT22;1923;48.154;11.536;2023-09-07T09:34:33;23.60;99.90
3816;DHT22;1923;48.154;11.536;2023-09-07T09:37:03;24.00;99.90
3816;DHT22;1923;48.154;11.536;2023-09-07T09:39:32;24.00;99.90
3816;DHT22;1923;48.154;11.536;2023-09-07T09:42:00;24.30;99.90
3816;DHT22;1923;48.154;11.536;2023-09-07T09:44:30;25.10;99.90
3816;DHT22;1923;48.154;11.536;2023-09-07T09:46:59;25.50;99.90
3816;DHT22;1923;48.154;11.536;2023-09-07T09:49:28;25.50;99.90
3816;DHT22;1923;48.154;11.536;2023-09-07T09:51:57;25.50;99.90
3816;DHT22;1923;48.154;11.536;2023-09-07T09:54:29;25.60;99.90
3816;DHT22;1923;48.154;11.536;2023-09-07T09:56:58;26.00;99.90
3816;DHT22;1923;48.154;11.536;2023-09-07T09:59:26;26.20;99.90
3816;DHT22;1923;48.154;11.536;2023-09-07T10:01:55;26.60;99.90
3816;DHT22;1923;48.154;11.536;2023-09-07T10:04:24;26.60;99.90
3816;DHT22;1923;48.154;11.536;2023-09-07T10:06:58;26.80;99.90
3816;DHT22;1923;48.154;11.536;2023-09-07T10:09:32;26.90;99.90
3816;DHT22;1923;48.154;11.536;2023-09-07T10:12:01;27.10;99.90
3816;DHT22;1923;48.154;11.536;2023-09-07T10:14:38;26.90;99.90
3816;DHT22;1923;48.154;11.536;2023-09-07T10:17:07;26.60;99.90
3816;DHT22;1923;48.154;11.536;2023-09-07T10:19:37;26.00;99.90
3816;DHT22;1923;48.154;11.536;2023-09-07T10:22:07;25.80;99.90
3816;DHT22;1923;48.154;11.536;2023-09-07T10:24:36;26.90;99.90
3816;DHT22;1923;48.154;11.536;2023-09-07T10:27:08;28.00;99.90
3816;DHT22;1923;48.154;11.536;2023-09-07T10:29:41;29.10;99.90
3816;DHT22;1923;48.154;11.536;2023-09-07T10:32:10;30.10;99.90
3816;DHT22;1923;48.154;11.536;2023-09-07T10:34:40;31.50;99.90
3816;DHT22;1923;48.154;11.536;2023-09-07T10:37:10;32.70;99.50
3816;DHT22;1923;48.154;11.536;2023-09-07T10:39:42;33.70;96.80
3816;DHT22;1923;48.154;11.536;2023-09-07T10:42:20;33.80;95.50
3816;DHT22;1923;48.154;11.536;2023-09-07T10:44:49;33.30;94.90
3816;DHT22;1923;48.154;11.536;2023-09-07T10:47:17;34.90;94.10
3816;DHT22;1923;48.154;11.536;2023-09-07T10:49:45;35.20;91.70
3816;DHT22;1923;48.154;11.536;2023-09-07T10:52:13;35.20;91.40
3816;DHT22;1923;48.154;11.536;2023-09-07T10:54:43;35.30;91.10
3816;DHT22;1923;48.154;11.536;2023-09-07T10:57:12;35.90;90.30
3816;DHT22;1923;48.154;11.536;2023-09-07T10:59:44;36.20;88.10
3816;DHT22;1923;48.154;11.536;2023-09-07T11:02:13;36.10;87.20
3816;DHT22;1923;48.154;11.536;2023-09-07T11:04:42;36.00;86.70
3816;DHT22;1923;48.154;11.536;2023-09-07T11:07:11;35.60;86.60
3816;DHT22;1923;48.154;11.536;2023-09-07T11:09:40;36.00;85.90
3816;DHT22;1923;48.154;11.536;2023-09-07T11:12:12;35.70;85.00
3816;DHT22;1923;48.154;11.536;2023-09-07T11:14:40;35.50;86.70
3816;DHT22;1923;48.154;11.536;2023-09-07T11:17:08;33.90;87.70
3816;DHT22;1923;48.154;11.536;2023-09-07T11:19:37;32.40;90.50
3816;DHT22;1923;48.154;11.536;2023-09-07T11:22:05;30.60;92.50
3816;DHT22;1923;48.154;11.536;2023-09-07T11:24:34;29.40;94.50
3816;DHT22;1923;48.154;11.536;2023-09-07T11:27:03;28.70;96.30
3816;DHT22;1923;48.154;11.536;2023-09-07T11:29:33;28.40;97.10
3816;DHT22;1923;48.154;11.536;2023-09-07T11:32:08;27.70;98.00
3816;DHT22;1923;48.154;11.536;2023-09-07T11:34:47;27.40;99.40
3816;DHT22;1923;48.154;11.536;2023-09-07T11:37:16;26.90;99.90
3816;DHT22;1923;48.154;11.536;2023-09-07T11:39:45;26.90;99.90
3816;DHT22;1923;48.154;11.536;2023-09-07T11:42:13;26.60;99.90
3816;DHT22;1923;48.154;11.536;2023-09-07T11:44:43;26.40;99.90
3816;DHT22;1923;48.154;11.536;2023-09-07T11:47:11;26.00;99.90
3816;DHT22;1923;48.154;11.536;2023-09-07T11:49:39;26.10;99.90
3816;DHT22;1923;48.154;11.536;2023-09-07T11:52:07;26.30;99.90
3816;DHT22;1923;48.154;11.536;2023-09-07T11:54:35;26.00;99.90
3816;DHT22;1923;48.154;11.536;2023-09-07T11:57:04;26.00;99.90
3816;DHT22;1923;48.154;11.536;2023-09-07T11:59:32;26.00;99.90
3816;DHT22;1923;48.154;11.536;2023-09-07T12:02:19;26.00;99.90
3816;DHT22;1923;48.154;11.536;2023-09-07T12:04:48;25.90;99.90
3816;DHT22;1923;48.154;11.536;2023-09-07T12:07:16;25.80;99.90
3816;DHT22;1923;48.154;11.536;2023-09-07T12:09:44;25.80;99.90
3816;DHT22;1923;48.154;11.536;2023-09-07T12:12:13;25.70;99.90
3816;DHT22;1923;48.154;11.536;2023-09-07T12:14:41;25.80;99.90
3816;DHT22;1923;48.154;11.536;2023-09-07T12:17:09;25.50;99.90
3816;DHT22;1923;48.154;11.536;2023-09-07T12:19:39;25.40;99.90
3816;DHT22;1923;48.154;11.536;2023-09-07T12:22:08;25.50;99.90
3816;DHT22;1923;48.154;11.536;2023-09-07T12:24:36;25.60;99.90
3816;DHT22;1923;48.154;11.536;2023-09-07T12:27:05;25.60;99.90
3816;DHT22;1923;48.154;11.536;2023-09-07T12:29:33;25.70;99.90
3816;DHT22;1923;48.154;11.536;2023-09-07T12:32:01;25.50;99.90
3816;DHT22;1923;48.154;11.536;2023-09-07T12:34:29;25.40;99.90
3816;DHT22;1923;48.154;11.536;2023-09-07T12:37:00;25.50;99.90
3816;DHT22;1923;48.154;11.536;2023-09-07T12:39:30;25.50;99.90
3816;DHT22;1923;48.154;11.536;2023-09-07T12:41:59;25.30;99.90
3816;DHT22;1923;48.154;11.536;2023-09-07T12:44:28;25.10;99.90
3816;DHT22;1923;48.154;11.536;2023-09-07T12:46:56;25.20;99.90
3816;DHT22;1923;48.154;11.536;2023-09-07T12:49:24;25.20;99.90
3816;DHT22;1923;48.154;11.536;2023-09-07T12:51:52;25.20;99.90
3816;DHT22;1923;48.154;11.536;2023-09-07T12:54:21;25.20;99.90
3816;DHT22;1923;48.154;11.536;2023-09-07T12:56:50;25.40;99.90
3816;DHT22;1923;48.154;11.536;2023-09-07T12:59:19;25.50;99.90
3816;DHT22;1923;48.154;11.536;2023-09-07T13:01:47;25.60;99.90
3816;DHT22;1923;48.154;11.536;2023-09-07T13:04:15;25.40;99.90
3816;DHT22;1923;48.154;11.536;2023-09-07T13:06:43;25.60;99.90
3816;DHT22;1923;48.154;11.536;2023-09-07T13:09:12;25.60;99.90
3816;DHT22;1923;48.154;11.536;2023-09-07T13:11:41;25.60;99.90
3816;DHT22;1923;48.154;11.536;2023-09-07T13:14:09;25.60;99.90
3816;DHT22;1923;48.154;11.536;2023-09-07T13:16:38;25.50;99.90
3816;DHT22;1923;48.154;11.536;2023-09-07T13:19:06;25.50;99.90
3816;DHT22;1923;48.154;11.536;2023-09-07T13:21:34;25.50;99.90
3816;DHT22;1923;48.154;11.536;2023-09-07T13:24:03;25.50;99.90
3816;DHT22;1923;48.154;11.536;2023-09-07T13:26:31;25.60;99.90
3816;DHT22;1923;48.154;11.536;2023-09-07T13:29:01;25.70;99.90
3816;DHT22;1923;48.154;11.536;2023-09-07T13:31:29;25.80;99.90
3816;DHT22;1923;48.154;11.536;2023-09-07T13:33:57;25.40;99.90
3816;DHT22;1923;48.154;11.536;2023-09-07T13:36:25;25.50;99.90
3816;DHT22;1923;48.154;11.536;2023-09-07T13:38:54;25.50;99.90
3816;DHT22;1923;48.154;11.536;2023-09-07T13:41:23;25.50;99.90
3816;DHT22;1923;48.154;11.536;2023-09-07T13:43:51;25.40;99.90
3816;DHT22;1923;48.154;11.536;2023-09-07T13:46:21;25.50;99.90
3816;DHT22;1923;48.154;11.536;2023-09-07T13:48:50;25.40;99.90
3816;DHT22;1923;48.154;11.536;2023-09-07T13:51:18;25.40;99.90
3816;DHT22;1923;48.154;11.536;2023-09-07T13:53:46;25.50;99.90
3816;DHT22;1923;48.154;11.536;2023-09-07T13:56:17;25.50;99.90
3816;DHT22;1923;48.154;11.536;2023-09-07T13:58:45;25.40;99.90
3816;DHT22;1923;48.154;11.536;2023-09-07T14:01:13;25.50;99.90
3816;DHT22;1923;48.154;11.536;2023-09-07T14:03:43;25.50;99.90
3816;DHT22;1923;48.154;11.536;2023-09-07T14:06:11;25.60;99.90
3816;DHT22;1923;48.154;11.536;2023-09-07T14:08:39;25.60;99.90
3816;DHT22;1923;48.154;11.536;2023-09-07T14:11:07;25.60;99.90
3816;DHT22;1923;48.154;11.536;2023-09-07T14:13:35;25.80;99.90
3816;DHT22;1923;48.154;11.536;2023-09-07T14:16:04;25.70;99.90
3816;DHT22;1923;48.154;11.536;2023-09-07T14:18:32;25.60;99.90
3816;DHT22;1923;48.154;11.536;2023-09-07T14:21:02;25.70;99.90
3816;DHT22;1923;48.154;11.536;2023-09-07T14:23:30;25.60;99.90
3816;DHT22;1923;48.154;11.536;2023-09-07T14:25:59;25.70;99.90
3816;DHT22;1923;48.154;11.536;2023-09-07T14:28:27;25.60;99.90
3816;DHT22;1923;48.154;11.536;2023-09-07T14:30:55;25.60;99.90
3816;DHT22;1923;48.154;11.536;2023-09-07T14:33:25;25.50;99.90
3816;DHT22;1923;48.154;11.536;2023-09-07T14:35:53;25.60;99.90
3816;DHT22;1923;48.154;11.536;2023-09-07T14:38:23;25.60;99.90
3816;DHT22;1923;48.154;11.536;2023-09-07T14:40:54;25.60;99.90
3816;DHT22;1923;48.154;11.536;2023-09-07T14:43:22;25.50;99.90
3816;DHT22;1923;48.154;11.536;2023-09-07T14:45:50;25.60;99.90
3816;DHT22;1923;48.154;11.536;2023-09-07T14:48:18;25.60;99.90
3816;DHT22;1923;48.154;11.536;2023-09-07T14:50:47;25.50;99.90
3816;DHT22;1923;48.154;11.536;2023-09-07T14:53:14;25.60;99.90
3816;DHT22;1923;48.154;11.536;2023-09-07T14:55:44;25.60;99.90
3816;DHT22;1923;48.154;11.536;2023-09-07T14:58:15;25.50;99.90
3816;DHT22;1923;48.154;11.536;2023-09-07T15:00:43;25.60;99.90
3816;DHT22;1923;48.154;11.536;2023-09-07T15:03:11;25.60;99.90
3816;DHT22;1923;48.154;11.536;2023-09-07T15:05:39;25.50;99.90
3816;DHT22;1923;48.154;11.536;2023-09-07T15:08:07;25.60;99.90
3816;DHT22;1923;48.154;11.536;2023-09-07T15:10:35;25.50;99.90
3816;DHT22;1923;48.154;11.536;2023-09-07T15:13:05;25.60;99.90
3816;DHT22;1923;48.154;11.536;2023-09-07T15:15:34;25.50;99.90
3816;DHT22;1923;48.154;11.536;2023-09-07T15:18:06;25.60;99.90
3816;DHT22;1923;48.154;11.536;2023-09-07T15:20:35;25.70;99.90
3816;DHT22;1923;48.154;11.536;2023-09-07T15:23:03;25.70;99.90
3816;DHT22;1923;48.154;11.536;2023-09-07T15:25:31;25.70;99.90
3816;DHT22;1923;48.154;11.536;2023-09-07T15:28:00;25.60;99.90
3816;DHT22;1923;48.154;11.536;2023-09-07T15:30:29;25.60;99.90
3816;DHT22;1923;48.154;11.536;2023-09-07T15:32:57;25.70;99.90
3816;DHT22;1923;48.154;11.536;2023-09-07T15:35:25;25.70;99.90
3816;DHT22;1923;48.154;11.536;2023-09-07T15:37:53;25.50;99.90
3816;DHT22;1923;48.154;11.536;2023-09-07T15:40:22;25.60;99.90
3816;DHT22;1923;48.154;11.536;2023-09-07T15:42:49;25.60;99.90
3816;DHT22;1923;48.154;11.536;2023-09-07T15:45:18;25.50;99.90
3816;DHT22;1923;48.154;11.536;2023-09-07T15:47:47;25.40;99.40
3816;DHT22;1923;48.154;11.536;2023-09-07T15:50:16;25.40;99.00
3816;DHT22;1923;48.154;11.536;2023-09-07T15:52:45;25.40;98.90
3816;DHT22;1923;48.154;11.536;2023-09-07T15:55:14;25.30;99.20